sensor_id;sensor_type;location;lat;lon;timestamp;P1;durP1;ratioP1;P2;durP2;ratioP2
1174;SDS011;576;48.418;10.074;2023-07-02T00:00:22;2.17;;;1.97;;
1174;SDS011;576;48.418;10.074;2023-07-02T00:02:50;2.00;;;1.90;;
1174;SDS011;576;48.418;10.074;2023-07-02T00:05:18;2.10;;;2.00;;
1174;SDS011;576;48.418;10.074;2023-07-02T00:07:46;2.20;;;2.10;;
1174;SDS011;576;48.418;10.074;2023-07-02T00:10:15;2.40;;;2.30;;
1174;SDS011;576;48.418;10.074;2023-07-02T00:12:43;4.77;;;1.70;;
1174;SDS011;576;48.418;10.074;2023-07-02T00:15:13;2.07;;;1.97;;
1174;SDS011;576;48.418;10.074;2023-07-02T00:17:41;2.03;;;1.93;;
1174;SDS011;576;48.418;10.074;2023-07-02T00:20:10;2.10;;;1.90;;
1174;SDS011;576;48.418;10.074;2023-07-02T00:22:42;2.80;;;2.20;;
1174;SDS011;576;48.418;10.074;2023-07-02T00:25:13;2.20;;;2.10;;
1174;SDS011;576;48.418;10.074;2023-07-02T00:27:41;2.40;;;2.00;;
1174;SDS011;576;48.418;10.074;2023-07-02T00:30:10;1.93;;;1.83;;
1174;SDS011;576;48.418;10.074;2023-07-02T00:32:39;4.83;;;1.90;;
1174;SDS011;576;48.418;10.074;2023-07-02T00:35:08;1.80;;;1.70;;
1174;SDS011;576;48.418;10.074;2023-07-02T00:37:36;2.10;;;1.90;;
1174;SDS011;576;48.418;10.074;2023-07-02T00:40:05;1.97;;;1.87;;
1174;SDS011;576;48.418;10.074;2023-07-02T00:42:34;2.00;;;1.90;;
1174;SDS011;576;48.418;10.074;2023-07-02T00:45:03;1.87;;;1.77;;
1174;SDS011;576;48.418;10.074;2023-07-02T00:47:33;1.80;;;1.70;;
1174;SDS011;576;48.418;10.074;2023-07-02T00:50:04;2.10;;;1.90;;
1174;SDS011;576;48.418;10.074;2023-07-02T00:52:36;1.93;;;1.83;;
1174;SDS011;576;48.418;10.074;2023-07-02T00:55:05;1.80;;;1.70;;
1174;SDS011;576;48.418;10.074;2023-07-02T00:57:34;2.10;;;1.70;;
1174;SDS011;576;48.418;10.074;2023-07-02T01:00:02;1.77;;;1.60;;
1174;SDS011;576;48.418;10.074;2023-07-02T01:02:31;1.60;;;1.50;;
1174;SDS011;576;48.418;10.074;2023-07-02T01:05:00;1.90;;;1.80;;
1174;SDS011;576;48.418;10.074;2023-07-02T01:07:30;1.53;;;1.43;;
1174;SDS011;576;48.418;10.074;2023-07-02T01:09:58;1.37;;;1.33;;
1174;SDS011;576;48.418;10.074;2023-07-02T01:12:26;1.80;;;1.70;;
1174;SDS011;576;48.418;10.074;2023-07-02T01:14:56;1.70;;;1.60;;
1174;SDS011;576;48.418;10.074;2023-07-02T01:17:30;2.37;;;1.93;;
1174;SDS011;576;48.418;10.074;2023-07-02T01:20:08;1.23;;;1.20;;
1174;SDS011;576;48.418;10.074;2023-07-02T01:22:38;1.70;;;1.60;;
1174;SDS011;576;48.418;10.074;2023-07-02T01:25:07;1.47;;;1.37;;
1174;SDS011;576;48.418;10.074;2023-07-02T01:27:36;1.80;;;1.70;;
1174;SDS011;576;48.418;10.074;2023-07-02T01:30:06;1.67;;;1.57;;
1174;SDS011;576;48.418;10.074;2023-07-02T01:32:36;1.70;;;1.60;;
1174;SDS011;576;48.418;10.074;2023-07-02T01:35:05;2.00;;;1.90;;
1174;SDS011;576;48.418;10.074;2023-07-02T01:37:36;1.87;;;1.70;;
1174;SDS011;576;48.418;10.074;2023-07-02T01:40:05;1.83;;;1.60;;
1174;SDS011;576;48.418;10.074;2023-07-02T01:42:35;1.97;;;1.80;;
1174;SDS011;576;48.418;10.074;2023-07-02T01:45:03;1.70;;;1.60;;
1174;SDS011;576;48.418;10.074;2023-07-02T01:47:32;1.57;;;1.47;;
1174;SDS011;576;48.418;10.074;2023-07-02T01:50:01;1.70;;;1.60;;
1174;SDS011;576;48.418;10.074;2023-07-02T01:52:32;1.70;;;1.60;;
1174;SDS011;576;48.418;10.074;2023-07-02T01:55:00;1.70;;;1.60;;
1174;SDS011;576;48.418;10.074;2023-07-02T01:57:30;1.90;;;1.80;;
1174;SDS011;576;48.418;10.074;2023-07-02T01:59:58;1.83;;;1.67;;
1174;SDS011;576;48.418;10.074;2023-07-02T02:02:26;1.60;;;1.50;;
1174;SDS011;576;48.418;10.074;2023-07-02T02:04:54;2.20;;;2.00;;
1174;SDS011;576;48.418;10.074;2023-07-02T02:07:24;2.10;;;2.00;;
1174;SDS011;576;48.418;10.074;2023-07-02T02:09:53;1.90;;;1.80;;
1174;SDS011;576;48.418;10.074;2023-07-02T02:12:22;2.50;;;1.90;;
1174;SDS011;576;48.418;10.074;2023-07-02T02:14:50;1.77;;;1.67;;
1174;SDS011;576;48.418;10.074;2023-07-02T02:17:18;2.10;;;2.00;;
1174;SDS011;576;48.418;10.074;2023-07-02T02:19:46;4.67;;;2.17;;
1174;SDS011;576;48.418;10.074;2023-07-02T02:22:15;1.73;;;1.63;;
1174;SDS011;576;48.418;10.074;2023-07-02T02:24:43;1.53;;;1.43;;
1174;SDS011;576;48.418;10.074;2023-07-02T02:27:12;2.13;;;1.93;;
1174;SDS011;576;48.418;10.074;2023-07-02T02:29:41;2.00;;;1.90;;
1174;SDS011;576;48.418;10.074;2023-07-02T02:32:09;1.67;;;1.57;;
1174;SDS011;576;48.418;10.074;2023-07-02T02:34:37;2.10;;;1.90;;
1174;SDS011;576;48.418;10.074;2023-07-02T02:37:06;2.13;;;2.03;;
1174;SDS011;576;48.418;10.074;2023-07-02T02:39:35;1.73;;;1.63;;
1174;SDS011;576;48.418;10.074;2023-07-02T02:42:04;2.40;;;2.20;;
1174;SDS011;576;48.418;10.074;2023-07-02T02:44:34;1.87;;;1.77;;
1174;SDS011;576;48.418;10.074;2023-07-02T02:47:03;2.40;;;2.30;;
1174;SDS011;576;48.418;10.074;2023-07-02T02:49:32;1.87;;;1.77;;
1174;SDS011;576;48.418;10.074;2023-07-02T02:52:00;2.00;;;1.90;;
1174;SDS011;576;48.418;10.074;2023-07-02T02:54:28;2.47;;;2.00;;
1174;SDS011;576;48.418;10.074;2023-07-02T02:56:56;2.37;;;2.17;;
1174;SDS011;576;48.418;10.074;2023-07-02T02:59:25;2.30;;;1.80;;
1174;SDS011;576;48.418;10.074;2023-07-02T03:01:54;1.70;;;1.60;;
1174;SDS011;576;48.418;10.074;2023-07-02T03:04:22;1.70;;;1.60;;
1174;SDS011;576;48.418;10.074;2023-07-02T03:06:51;1.97;;;1.87;;
1174;SDS011;576;48.418;10.074;2023-07-02T03:09:20;2.43;;;2.23;;
1174;SDS011;576;48.418;10.074;2023-07-02T03:11:48;2.40;;;2.00;;
1174;SDS011;576;48.418;10.074;2023-07-02T03:14:16;2.57;;;2.10;;
1174;SDS011;576;48.418;10.074;2023-07-02T03:16:45;1.97;;;1.87;;
1174;SDS011;576;48.418;10.074;2023-07-02T03:19:15;1.70;;;1.57;;
1174;SDS011;576;48.418;10.074;2023-07-02T03:21:45;1.97;;;1.77;;
1174;SDS011;576;48.418;10.074;2023-07-02T03:24:13;1.93;;;1.83;;
1174;SDS011;576;48.418;10.074;2023-07-02T03:26:42;2.43;;;2.17;;
1174;SDS011;576;48.418;10.074;2023-07-02T03:29:11;1.87;;;1.77;;
1174;SDS011;576;48.418;10.074;2023-07-02T03:31:40;2.07;;;1.97;;
1174;SDS011;576;48.418;10.074;2023-07-02T03:34:08;2.40;;;2.20;;
1174;SDS011;576;48.418;10.074;2023-07-02T03:36:38;2.10;;;2.00;;
1174;SDS011;576;48.418;10.074;2023-07-02T03:39:06;2.20;;;2.10;;
1174;SDS011;576;48.418;10.074;2023-07-02T03:41:36;2.57;;;2.37;;
1174;SDS011;576;48.418;10.074;2023-07-02T03:44:04;1.77;;;1.67;;
1174;SDS011;576;48.418;10.074;2023-07-02T03:46:33;1.80;;;1.70;;
1174;SDS011;576;48.418;10.074;2023-07-02T03:49:02;2.37;;;2.17;;
1174;SDS011;576;48.418;10.074;2023-07-02T03:51:31;2.30;;;2.10;;
1174;SDS011;576;48.418;10.074;2023-07-02T03:54:00;2.50;;;2.30;;
1174;SDS011;576;48.418;10.074;2023-07-02T03:56:28;2.90;;;2.70;;
1174;SDS011;576;48.418;10.074;2023-07-02T03:58:57;1.90;;;1.80;;
1174;SDS011;576;48.418;10.074;2023-07-02T04:01:25;2.33;;;2.13;;
1174;SDS011;576;48.418;10.074;2023-07-02T04:03:53;1.90;;;1.80;;
1174;SDS011;576;48.418;10.074;2023-07-02T04:06:22;2.60;;;2.40;;
1174;SDS011;576;48.418;10.074;2023-07-02T04:08:50;2.30;;;2.20;;
1174;SDS011;576;48.418;10.074;2023-07-02T04:11:20;2.53;;;2.33;;
1174;SDS011;576;48.418;10.074;2023-07-02T04:13:48;2.27;;;2.10;;
1174;SDS011;576;48.418;10.074;2023-07-02T04:16:16;2.00;;;1.90;;
1174;SDS011;576;48.418;10.074;2023-07-02T04:18:45;2.20;;;2.10;;
1174;SDS011;576;48.418;10.074;2023-07-02T04:21:13;2.53;;;2.33;;
1174;SDS011;576;48.418;10.074;2023-07-02T04:23:41;2.00;;;1.90;;
1174;SDS011;576;48.418;10.074;2023-07-02T04:26:10;2.70;;;2.50;;
1174;SDS011;576;48.418;10.074;2023-07-02T04:28:59;2.20;;;2.00;;
1174;SDS011;576;48.418;10.074;2023-07-02T04:31:28;2.40;;;2.30;;
1174;SDS011;576;48.418;10.074;2023-07-02T04:33:56;2.40;;;2.20;;
1174;SDS011;576;48.418;10.074;2023-07-02T04:36:26;2.90;;;2.70;;
1174;SDS011;576;48.418;10.074;2023-07-02T04:38:54;2.70;;;2.50;;
1174;SDS011;576;48.418;10.074;2023-07-02T04:41:23;2.07;;;1.97;;
1174;SDS011;576;48.418;10.074;2023-07-02T04:43:51;2.43;;;2.23;;
1174;SDS011;576;48.418;10.074;2023-07-02T04:46:20;2.53;;;2.33;;
1174;SDS011;576;48.418;10.074;2023-07-02T04:48:49;2.70;;;2.50;;
1174;SDS011;576;48.418;10.074;2023-07-02T04:51:19;2.80;;;2.20;;
1174;SDS011;576;48.418;10.074;2023-07-02T04:53:48;1.80;;;1.70;;
1174;SDS011;576;48.418;10.074;2023-07-02T04:56:16;2.10;;;1.90;;
1174;SDS011;576;48.418;10.074;2023-07-02T04:58:44;2.33;;;2.23;;
1174;SDS011;576;48.418;10.074;2023-07-02T05:01:13;2.30;;;2.10;;
1174;SDS011;576;48.418;10.074;2023-07-02T05:03:42;2.37;;;2.27;;
1174;SDS011;576;48.418;10.074;2023-07-02T05:06:10;2.70;;;2.50;;
1174;SDS011;576;48.418;10.074;2023-07-02T05:08:39;2.77;;;2.60;;
1174;SDS011;576;48.418;10.074;2023-07-02T05:11:08;4.40;;;2.10;;
1174;SDS011;576;48.418;10.074;2023-07-02T05:13:37;3.57;;;2.80;;
1174;SDS011;576;48.418;10.074;2023-07-02T05:16:05;2.63;;;2.43;;
1174;SDS011;576;48.418;10.074;2023-07-02T05:18:34;2.63;;;2.43;;
1174;SDS011;576;48.418;10.074;2023-07-02T05:21:03;2.60;;;2.50;;
1174;SDS011;576;48.418;10.074;2023-07-02T05:23:31;2.30;;;2.17;;
1174;SDS011;576;48.418;10.074;2023-07-02T05:26:00;2.40;;;2.30;;
1174;SDS011;576;48.418;10.074;2023-07-02T05:28:28;2.57;;;2.03;;
1174;SDS011;576;48.418;10.074;2023-07-02T05:30:57;2.00;;;1.90;;
1174;SDS011;576;48.418;10.074;2023-07-02T05:33:25;2.37;;;2.10;;
1174;SDS011;576;48.418;10.074;2023-07-02T05:35:53;2.70;;;2.50;;
1174;SDS011;576;48.418;10.074;2023-07-02T05:38:23;2.57;;;2.37;;
1174;SDS011;576;48.418;10.074;2023-07-02T05:40:51;2.57;;;2.40;;
1174;SDS011;576;48.418;10.074;2023-07-02T05:43:19;2.40;;;2.20;;
1174;SDS011;576;48.418;10.074;2023-07-02T05:45:49;2.67;;;2.47;;
1174;SDS011;576;48.418;10.074;2023-07-02T05:48:18;2.53;;;2.33;;
1174;SDS011;576;48.418;10.074;2023-07-02T05:50:46;2.23;;;2.13;;
1174;SDS011;576;48.418;10.074;2023-07-02T05:53:15;3.23;;;2.40;;
1174;SDS011;576;48.418;10.074;2023-07-02T05:55:45;2.80;;;2.60;;
1174;SDS011;576;48.418;10.074;2023-07-02T05:58:13;2.47;;;2.33;;
1174;SDS011;576;48.418;10.074;2023-07-02T06:00:41;2.30;;;2.10;;
1174;SDS011;576;48.418;10.074;2023-07-02T06:03:16;2.10;;;2.00;;
1174;SDS011;576;48.418;10.074;2023-07-02T06:05:47;2.53;;;2.33;;
1174;SDS011;576;48.418;10.074;2023-07-02T06:08:16;2.53;;;2.33;;
1174;SDS011;576;48.418;10.074;2023-07-02T06:10:46;2.77;;;2.57;;
1174;SDS011;576;48.418;10.074;2023-07-02T06:13:16;2.13;;;1.97;;
1174;SDS011;576;48.418;10.074;2023-07-02T06:15:45;2.07;;;1.90;;
1174;SDS011;576;48.418;10.074;2023-07-02T06:18:14;2.20;;;2.03;;
1174;SDS011;576;48.418;10.074;2023-07-02T06:20:43;2.67;;;2.10;;
1174;SDS011;576;48.418;10.074;2023-07-02T06:23:12;2.20;;;1.93;;
1174;SDS011;576;48.418;10.074;2023-07-02T06:25:40;2.70;;;2.50;;
1174;SDS011;576;48.418;10.074;2023-07-02T06:28:10;2.33;;;2.13;;
1174;SDS011;576;48.418;10.074;2023-07-02T06:30:38;2.37;;;2.17;;
1174;SDS011;576;48.418;10.074;2023-07-02T06:33:07;2.03;;;1.93;;
1174;SDS011;576;48.418;10.074;2023-07-02T06:35:35;2.33;;;2.23;;
1174;SDS011;576;48.418;10.074;2023-07-02T06:38:03;1.87;;;1.77;;
1174;SDS011;576;48.418;10.074;2023-07-02T06:40:31;2.13;;;1.90;;
1174;SDS011;576;48.418;10.074;2023-07-02T06:43:00;1.60;;;1.50;;
1174;SDS011;576;48.418;10.074;2023-07-02T06:45:30;1.90;;;1.80;;
1174;SDS011;576;48.418;10.074;2023-07-02T06:47:58;1.83;;;1.73;;
1174;SDS011;576;48.418;10.074;2023-07-02T06:50:26;2.40;;;2.10;;
1174;SDS011;576;48.418;10.074;2023-07-02T06:52:55;1.63;;;1.53;;
1174;SDS011;576;48.418;10.074;2023-07-02T06:55:23;2.07;;;1.97;;
1174;SDS011;576;48.418;10.074;2023-07-02T06:57:51;4.80;;;3.20;;
1174;SDS011;576;48.418;10.074;2023-07-02T07:00:19;5.40;;;2.60;;
1174;SDS011;576;48.418;10.074;2023-07-02T07:02:49;3.50;;;2.30;;
1174;SDS011;576;48.418;10.074;2023-07-02T07:05:17;3.37;;;3.07;;
1174;SDS011;576;48.418;10.074;2023-07-02T07:07:45;2.67;;;2.30;;
1174;SDS011;576;48.418;10.074;2023-07-02T07:10:14;3.23;;;2.43;;
1174;SDS011;576;48.418;10.074;2023-07-02T07:12:42;3.00;;;2.13;;
1174;SDS011;576;48.418;10.074;2023-07-02T07:15:10;1.90;;;1.70;;
1174;SDS011;576;48.418;10.074;2023-07-02T07:17:38;2.37;;;2.07;;
1174;SDS011;576;48.418;10.074;2023-07-02T07:20:08;3.03;;;1.77;;
1174;SDS011;576;48.418;10.074;2023-07-02T07:22:37;3.73;;;2.70;;
1174;SDS011;576;48.418;10.074;2023-07-02T07:25:06;1.93;;;1.80;;
1174;SDS011;576;48.418;10.074;2023-07-02T07:27:34;3.40;;;1.87;;
1174;SDS011;576;48.418;10.074;2023-07-02T07:30:03;3.03;;;1.70;;
1174;SDS011;576;48.418;10.074;2023-07-02T07:32:32;5.10;;;2.00;;
1174;SDS011;576;48.418;10.074;2023-07-02T07:35:00;3.50;;;2.50;;
1174;SDS011;576;48.418;10.074;2023-07-02T07:37:30;2.77;;;1.93;;
1174;SDS011;576;48.418;10.074;2023-07-02T07:39:58;5.40;;;2.30;;
1174;SDS011;576;48.418;10.074;2023-07-02T07:42:26;2.77;;;1.97;;
1174;SDS011;576;48.418;10.074;2023-07-02T07:44:54;2.70;;;2.27;;
1174;SDS011;576;48.418;10.074;2023-07-02T07:47:23;3.80;;;2.30;;
1174;SDS011;576;48.418;10.074;2023-07-02T07:49:51;4.13;;;2.30;;
1174;SDS011;576;48.418;10.074;2023-07-02T07:52:19;2.20;;;2.00;;
1174;SDS011;576;48.418;10.074;2023-07-02T07:54:49;3.43;;;2.17;;
1174;SDS011;576;48.418;10.074;2023-07-02T07:57:17;4.00;;;2.50;;
1174;SDS011;576;48.418;10.074;2023-07-02T07:59:45;3.43;;;2.13;;
1174;SDS011;576;48.418;10.074;2023-07-02T08:02:13;2.40;;;2.20;;
1174;SDS011;576;48.418;10.074;2023-07-02T08:04:41;3.97;;;2.07;;
1174;SDS011;576;48.418;10.074;2023-07-02T08:07:10;3.67;;;2.43;;
1174;SDS011;576;48.418;10.074;2023-07-02T08:09:38;3.87;;;2.13;;
1174;SDS011;576;48.418;10.074;2023-07-02T08:12:08;5.37;;;2.87;;
1174;SDS011;576;48.418;10.074;2023-07-02T08:14:36;3.10;;;2.80;;
1174;SDS011;576;48.418;10.074;2023-07-02T08:17:04;5.40;;;2.43;;
1174;SDS011;576;48.418;10.074;2023-07-02T08:19:32;2.83;;;2.20;;
1174;SDS011;576;48.418;10.074;2023-07-02T08:22:00;2.47;;;2.17;;
1174;SDS011;576;48.418;10.074;2023-07-02T08:24:29;2.47;;;2.27;;
1174;SDS011;576;48.418;10.074;2023-07-02T08:26:57;3.90;;;2.80;;
1174;SDS011;576;48.418;10.074;2023-07-02T08:29:27;3.00;;;2.30;;
1174;SDS011;576;48.418;10.074;2023-07-02T08:31:55;3.00;;;2.57;;
1174;SDS011;576;48.418;10.074;2023-07-02T08:34:24;5.50;;;4.20;;
1174;SDS011;576;48.418;10.074;2023-07-02T08:36:52;2.30;;;2.10;;
1174;SDS011;576;48.418;10.074;2023-07-02T08:39:20;3.17;;;2.90;;
1174;SDS011;576;48.418;10.074;2023-07-02T08:41:48;3.57;;;2.93;;
1174;SDS011;576;48.418;10.074;2023-07-02T08:44:19;3.13;;;2.73;;
1174;SDS011;576;48.418;10.074;2023-07-02T08:46:50;5.93;;;3.10;;
1174;SDS011;576;48.418;10.074;2023-07-02T08:49:22;4.03;;;3.30;;
1174;SDS011;576;48.418;10.074;2023-07-02T08:51:50;6.60;;;3.37;;
1174;SDS011;576;48.418;10.074;2023-07-02T08:54:18;5.00;;;3.30;;
1174;SDS011;576;48.418;10.074;2023-07-02T08:56:47;4.47;;;3.90;;
1174;SDS011;576;48.418;10.074;2023-07-02T08:59:15;7.40;;;4.00;;
1174;SDS011;576;48.418;10.074;2023-07-02T09:01:47;4.37;;;3.97;;
1174;SDS011;576;48.418;10.074;2023-07-02T09:04:18;5.37;;;3.80;;
1174;SDS011;576;48.418;10.074;2023-07-02T09:06:47;6.63;;;4.70;;
1174;SDS011;576;48.418;10.074;2023-07-02T09:09:15;6.73;;;4.40;;
1174;SDS011;576;48.418;10.074;2023-07-02T09:11:47;6.03;;;4.93;;
1174;SDS011;576;48.418;10.074;2023-07-02T09:14:26;7.03;;;4.57;;
1174;SDS011;576;48.418;10.074;2023-07-02T09:17:05;6.83;;;4.33;;
1174;SDS011;576;48.418;10.074;2023-07-02T09:19:36;6.70;;;3.87;;
1174;SDS011;576;48.418;10.074;2023-07-02T09:22:16;5.60;;;4.37;;
1174;SDS011;576;48.418;10.074;2023-07-02T09:24:50;7.70;;;4.20;;
1174;SDS011;576;48.418;10.074;2023-07-02T09:27:19;8.70;;;5.50;;
1174;SDS011;576;48.418;10.074;2023-07-02T09:29:51;10.00;;;5.03;;
1174;SDS011;576;48.418;10.074;2023-07-02T09:32:25;9.07;;;5.07;;
1174;SDS011;576;48.418;10.074;2023-07-02T09:34:55;6.03;;;4.40;;
1174;SDS011;576;48.418;10.074;2023-07-02T09:37:25;7.73;;;6.47;;
1174;SDS011;576;48.418;10.074;2023-07-02T09:39:54;10.33;;;5.57;;
1174;SDS011;576;48.418;10.074;2023-07-02T09:42:24;8.73;;;5.03;;
1174;SDS011;576;48.418;10.074;2023-07-02T09:44:53;5.97;;;5.20;;
1174;SDS011;576;48.418;10.074;2023-07-02T09:47:22;4.83;;;4.33;;
1174;SDS011;576;48.418;10.074;2023-07-02T09:49:53;8.30;;;5.47;;
1174;SDS011;576;48.418;10.074;2023-07-02T09:52:23;6.73;;;4.50;;
1174;SDS011;576;48.418;10.074;2023-07-02T09:54:53;5.73;;;4.20;;
1174;SDS011;576;48.418;10.074;2023-07-02T09:57:22;5.87;;;4.83;;
1174;SDS011;576;48.418;10.074;2023-07-02T09:59:50;5.00;;;4.40;;
1174;SDS011;576;48.418;10.074;2023-07-02T10:02:18;6.00;;;4.73;;
1174;SDS011;576;48.418;10.074;2023-07-02T10:04:47;7.10;;;4.50;;
1174;SDS011;576;48.418;10.074;2023-07-02T10:07:29;7.70;;;4.70;;
1174;SDS011;576;48.418;10.074;2023-07-02T10:09:58;5.40;;;4.57;;
1174;SDS011;576;48.418;10.074;2023-07-02T10:12:27;5.57;;;4.47;;
1174;SDS011;576;48.418;10.074;2023-07-02T10:14:57;6.40;;;5.00;;
1174;SDS011;576;48.418;10.074;2023-07-02T10:17:27;6.23;;;4.73;;
1174;SDS011;576;48.418;10.074;2023-07-02T10:19:58;6.93;;;4.47;;
1174;SDS011;576;48.418;10.074;2023-07-02T10:22:28;6.63;;;5.07;;
1174;SDS011;576;48.418;10.074;2023-07-02T10:24:57;6.20;;;4.30;;
1174;SDS011;576;48.418;10.074;2023-07-02T10:27:34;5.23;;;4.50;;
1174;SDS011;576;48.418;10.074;2023-07-02T10:30:03;5.73;;;4.90;;
1174;SDS011;576;48.418;10.074;2023-07-02T10:32:34;6.03;;;4.30;;
1174;SDS011;576;48.418;10.074;2023-07-02T10:35:12;5.17;;;4.53;;
1174;SDS011;576;48.418;10.074;2023-07-02T10:37:42;7.10;;;4.93;;
1174;SDS011;576;48.418;10.074;2023-07-02T10:40:11;6.07;;;4.60;;
1174;SDS011;576;48.418;10.074;2023-07-02T10:42:46;5.57;;;4.60;;
1174;SDS011;576;48.418;10.074;2023-07-02T10:45:15;7.23;;;4.93;;
1174;SDS011;576;48.418;10.074;2023-07-02T10:47:44;4.63;;;4.23;;
1174;SDS011;576;48.418;10.074;2023-07-02T10:50:14;5.17;;;4.53;;
1174;SDS011;576;48.418;10.074;2023-07-02T10:52:44;4.80;;;4.30;;
1174;SDS011;576;48.418;10.074;2023-07-02T10:55:16;5.30;;;4.63;;
1174;SDS011;576;48.418;10.074;2023-07-02T10:57:45;6.50;;;4.57;;
1174;SDS011;576;48.418;10.074;2023-07-02T11:00:13;5.30;;;4.80;;
1174;SDS011;576;48.418;10.074;2023-07-02T11:02:42;5.57;;;4.60;;
1174;SDS011;576;48.418;10.074;2023-07-02T11:05:11;4.53;;;3.90;;
1174;SDS011;576;48.418;10.074;2023-07-02T11:07:40;7.40;;;5.17;;
1174;SDS011;576;48.418;10.074;2023-07-02T11:10:10;7.77;;;4.70;;
1174;SDS011;576;48.418;10.074;2023-07-02T11:12:46;5.13;;;4.63;;
1174;SDS011;576;48.418;10.074;2023-07-02T11:15:14;5.50;;;4.47;;
1174;SDS011;576;48.418;10.074;2023-07-02T11:17:45;5.80;;;4.60;;
1174;SDS011;576;48.418;10.074;2023-07-02T11:20:13;5.00;;;4.23;;
1174;SDS011;576;48.418;10.074;2023-07-02T11:22:42;4.83;;;4.37;;
1174;SDS011;576;48.418;10.074;2023-07-02T11:25:12;5.00;;;4.50;;
1174;SDS011;576;48.418;10.074;2023-07-02T11:27:42;4.97;;;4.33;;
1174;SDS011;576;48.418;10.074;2023-07-02T11:30:11;7.77;;;7.07;;
1174;SDS011;576;48.418;10.074;2023-07-02T11:32:49;5.10;;;4.60;;
1174;SDS011;576;48.418;10.074;2023-07-02T11:35:19;6.40;;;5.30;;
1174;SDS011;576;48.418;10.074;2023-07-02T11:37:47;5.37;;;4.23;;
1174;SDS011;576;48.418;10.074;2023-07-02T11:40:18;5.90;;;5.10;;
1174;SDS011;576;48.418;10.074;2023-07-02T11:42:47;5.10;;;4.60;;
1174;SDS011;576;48.418;10.074;2023-07-02T11:45:15;6.27;;;4.33;;
1174;SDS011;576;48.418;10.074;2023-07-02T11:47:43;5.37;;;4.87;;
1174;SDS011;576;48.418;10.074;2023-07-02T11:50:12;5.50;;;5.00;;
1174;SDS011;576;48.418;10.074;2023-07-02T11:52:52;5.80;;;5.30;;
1174;SDS011;576;48.418;10.074;2023-07-02T11:55:22;5.30;;;4.63;;
1174;SDS011;576;48.418;10.074;2023-07-02T11:57:50;4.77;;;4.30;;
1174;SDS011;576;48.418;10.074;2023-07-02T12:00:19;5.33;;;4.83;;
1174;SDS011;576;48.418;10.074;2023-07-02T12:02:48;5.90;;;5.30;;
1174;SDS011;576;48.418;10.074;2023-07-02T12:05:18;5.00;;;4.40;;
1174;SDS011;576;48.418;10.074;2023-07-02T12:07:46;4.40;;;3.93;;
1174;SDS011;576;48.418;10.074;2023-07-02T12:10:14;5.13;;;4.63;;
1174;SDS011;576;48.418;10.074;2023-07-02T12:12:44;5.83;;;5.23;;
1174;SDS011;576;48.418;10.074;2023-07-02T12:15:12;5.17;;;4.67;;
1174;SDS011;576;48.418;10.074;2023-07-02T12:17:40;5.23;;;4.73;;
1174;SDS011;576;48.418;10.074;2023-07-02T12:20:09;5.70;;;5.10;;
1174;SDS011;576;48.418;10.074;2023-07-02T12:22:38;6.43;;;5.30;;
1174;SDS011;576;48.418;10.074;2023-07-02T12:25:06;6.20;;;4.77;;
1174;SDS011;576;48.418;10.074;2023-07-02T12:27:35;4.80;;;4.40;;
1174;SDS011;576;48.418;10.074;2023-07-02T12:30:06;5.10;;;4.60;;
1174;SDS011;576;48.418;10.074;2023-07-02T12:32:35;6.03;;;5.43;;
1174;SDS011;576;48.418;10.074;2023-07-02T12:35:05;5.50;;;5.00;;
1174;SDS011;576;48.418;10.074;2023-07-02T12:37:34;5.60;;;5.07;;
1174;SDS011;576;48.418;10.074;2023-07-02T12:40:03;5.57;;;5.00;;
1174;SDS011;576;48.418;10.074;2023-07-02T12:42:31;7.17;;;6.47;;
1174;SDS011;576;48.418;10.074;2023-07-02T12:45:00;6.37;;;5.20;;
1174;SDS011;576;48.418;10.074;2023-07-02T12:47:29;7.83;;;5.70;;
1174;SDS011;576;48.418;10.074;2023-07-02T12:49:58;6.53;;;5.93;;
1174;SDS011;576;48.418;10.074;2023-07-02T12:52:26;7.67;;;6.47;;
1174;SDS011;576;48.418;10.074;2023-07-02T12:54:55;6.57;;;5.97;;
1174;SDS011;576;48.418;10.074;2023-07-02T12:57:24;7.30;;;6.10;;
1174;SDS011;576;48.418;10.074;2023-07-02T12:59:52;6.60;;;6.00;;
1174;SDS011;576;48.418;10.074;2023-07-02T13:02:21;8.47;;;7.00;;
1174;SDS011;576;48.418;10.074;2023-07-02T13:04:51;8.07;;;6.40;;
1174;SDS011;576;48.418;10.074;2023-07-02T13:07:19;7.37;;;6.30;;
1174;SDS011;576;48.418;10.074;2023-07-02T13:09:49;6.40;;;5.80;;
1174;SDS011;576;48.418;10.074;2023-07-02T13:12:17;8.03;;;6.03;;
1174;SDS011;576;48.418;10.074;2023-07-02T13:14:46;8.93;;;7.57;;
1174;SDS011;576;48.418;10.074;2023-07-02T13:17:14;7.83;;;6.93;;
1174;SDS011;576;48.418;10.074;2023-07-02T13:19:42;8.20;;;6.97;;
1174;SDS011;576;48.418;10.074;2023-07-02T13:22:12;7.73;;;7.00;;
1174;SDS011;576;48.418;10.074;2023-07-02T13:24:40;7.77;;;7.00;;
1174;SDS011;576;48.418;10.074;2023-07-02T13:27:11;11.23;;;7.40;;
1174;SDS011;576;48.418;10.074;2023-07-02T13:29:42;8.20;;;7.43;;
1174;SDS011;576;48.418;10.074;2023-07-02T13:32:10;9.90;;;7.17;;
1174;SDS011;576;48.418;10.074;2023-07-02T13:34:39;7.40;;;6.70;;
1174;SDS011;576;48.418;10.074;2023-07-02T13:37:08;7.67;;;6.87;;
1174;SDS011;576;48.418;10.074;2023-07-02T13:39:38;8.03;;;6.87;;
1174;SDS011;576;48.418;10.074;2023-07-02T13:42:06;7.30;;;6.40;;
1174;SDS011;576;48.418;10.074;2023-07-02T13:44:34;8.43;;;7.00;;
1174;SDS011;576;48.418;10.074;2023-07-02T13:47:02;6.60;;;6.00;;
1174;SDS011;576;48.418;10.074;2023-07-02T13:49:31;7.80;;;6.83;;
1174;SDS011;576;48.418;10.074;2023-07-02T13:52:00;12.53;;;8.90;;
1174;SDS011;576;48.418;10.074;2023-07-02T13:54:28;8.43;;;7.37;;
1174;SDS011;576;48.418;10.074;2023-07-02T13:56:58;9.80;;;8.77;;
1174;SDS011;576;48.418;10.074;2023-07-02T13:59:27;10.00;;;8.27;;
1174;SDS011;576;48.418;10.074;2023-07-02T14:01:56;9.80;;;7.90;;
1174;SDS011;576;48.418;10.074;2023-07-02T14:04:24;10.03;;;9.03;;
1174;SDS011;576;48.418;10.074;2023-07-02T14:06:52;9.37;;;8.47;;
1174;SDS011;576;48.418;10.074;2023-07-02T14:09:21;10.97;;;9.63;;
1174;SDS011;576;48.418;10.074;2023-07-02T14:11:49;11.17;;;9.03;;
1174;SDS011;576;48.418;10.074;2023-07-02T14:14:17;9.17;;;7.80;;
1174;SDS011;576;48.418;10.074;2023-07-02T14:16:47;10.50;;;9.43;;
1174;SDS011;576;48.418;10.074;2023-07-02T14:19:15;10.67;;;9.53;;
1174;SDS011;576;48.418;10.074;2023-07-02T14:21:44;12.97;;;10.00;;
1174;SDS011;576;48.418;10.074;2023-07-02T14:24:13;10.47;;;9.40;;
1174;SDS011;576;48.418;10.074;2023-07-02T14:26:42;10.80;;;9.70;;
1174;SDS011;576;48.418;10.074;2023-07-02T14:29:11;12.97;;;10.30;;
1174;SDS011;576;48.418;10.074;2023-07-02T14:31:39;11.83;;;9.90;;
1174;SDS011;576;48.418;10.074;2023-07-02T14:34:09;11.60;;;10.30;;
1174;SDS011;576;48.418;10.074;2023-07-02T14:36:37;12.90;;;10.13;;
1174;SDS011;576;48.418;10.074;2023-07-02T14:39:05;11.10;;;9.97;;
1174;SDS011;576;48.418;10.074;2023-07-02T14:41:33;14.57;;;10.37;;
1174;SDS011;576;48.418;10.074;2023-07-02T14:44:02;11.87;;;9.90;;
1174;SDS011;576;48.418;10.074;2023-07-02T14:46:31;15.20;;;11.10;;
1174;SDS011;576;48.418;10.074;2023-07-02T14:48:59;15.00;;;10.40;;
1174;SDS011;576;48.418;10.074;2023-07-02T14:51:29;12.13;;;10.93;;
1174;SDS011;576;48.418;10.074;2023-07-02T14:53:57;11.80;;;10.67;;
1174;SDS011;576;48.418;10.074;2023-07-02T14:56:25;12.30;;;10.93;;
1174;SDS011;576;48.418;10.074;2023-07-02T14:58:54;13.47;;;10.60;;
1174;SDS011;576;48.418;10.074;2023-07-02T15:01:22;14.20;;;11.43;;
1174;SDS011;576;48.418;10.074;2023-07-02T15:03:51;13.77;;;11.80;;
1174;SDS011;576;48.418;10.074;2023-07-02T15:06:20;14.13;;;12.20;;
1174;SDS011;576;48.418;10.074;2023-07-02T15:08:50;13.80;;;12.13;;
1174;SDS011;576;48.418;10.074;2023-07-02T15:11:18;13.50;;;12.10;;
1174;SDS011;576;48.418;10.074;2023-07-02T15:13:46;12.93;;;11.60;;
1174;SDS011;576;48.418;10.074;2023-07-02T15:16:14;12.90;;;11.50;;
1174;SDS011;576;48.418;10.074;2023-07-02T15:18:43;14.43;;;12.03;;
1174;SDS011;576;48.418;10.074;2023-07-02T15:21:11;12.83;;;11.07;;
1174;SDS011;576;48.418;10.074;2023-07-02T15:23:39;13.57;;;12.27;;